createdAt,value
2022-08-25T00:08:26.889Z,22.72
2022-08-25T00:30:16.777Z,22.54
2022-08-25T00:52:05.933Z,22.21
2022-08-25T01:13:55.640Z,22.06
2022-08-25T01:35:40.133Z,22.00
2022-08-25T01:57:26.322Z,21.85
2022-08-25T02:19:13.362Z,21.67
2022-08-25T02:40:59.890Z,21.63
2022-08-25T03:02:46.886Z,21.42
2022-08-25T03:24:32.722Z,21.31
2022-08-25T03:46:23.413Z,21.28
2022-08-25T04:08:09.360Z,21.22
2022-08-25T04:29:55.112Z,21.22
2022-08-25T04:51:42.517Z,21.21
2022-08-25T05:13:28.912Z,21.46
2022-08-25T05:35:16.249Z,21.71
2022-08-25T05:57:02.430Z,22.16
2022-08-25T06:18:48.197Z,22.51
2022-08-25T06:40:34.013Z,22.74
2022-08-25T07:02:21.864Z,22.94
2022-08-25T07:24:11.158Z,23.61
2022-08-25T07:45:57.160Z,24.82
2022-08-25T08:07:43.991Z,28.95
2022-08-25T08:29:30.157Z,35.49
2022-08-25T08:51:24.632Z,41.77
2022-08-25T09:13:19.258Z,47.25
2022-08-25T09:35:07.350Z,42.11
2022-08-25T09:56:55.506Z,34.33
2022-08-25T10:18:41.495Z,31.91
2022-08-25T10:40:34.123Z,33.27
2022-08-25T11:02:54.596Z,34.94
2022-08-25T11:24:58.260Z,38.06
2022-08-25T11:46:55.352Z,40.57
2022-08-25T12:09:15.929Z,38.92
2022-08-25T12:31:08.677Z,36.35
2022-08-25T12:52:56.232Z,38.61
2022-08-25T13:14:44.000Z,39.22
2022-08-25T13:36:54.077Z,42.05
2022-08-25T13:58:46.475Z,42.35
2022-08-25T14:20:34.201Z,38.85
2022-08-25T14:42:20.320Z,36.63
2022-08-25T15:04:10.548Z,33.98
2022-08-25T15:25:58.527Z,32.86
2022-08-25T15:47:44.424Z,33.26
2022-08-25T16:09:31.472Z,33.13
2022-08-25T16:31:20.726Z,32.48
2022-08-25T16:53:24.382Z,31.50
2022-08-25T17:15:11.509Z,30.58
2022-08-25T17:36:58.145Z,29.94
2022-08-25T17:58:44.587Z,29.25
2022-08-25T18:20:30.766Z,28.63
2022-08-25T18:42:16.583Z,28.30
2022-08-25T19:04:02.663Z,27.94
2022-08-25T19:25:48.502Z,27.47
2022-08-25T19:47:34.217Z,27.20
2022-08-25T20:09:36.048Z,26.75
2022-08-25T20:31:26.608Z,26.31
2022-08-25T20:53:13.522Z,25.99
2022-08-25T21:14:59.822Z,25.80
2022-08-25T21:36:47.943Z,25.48
2022-08-25T21:58:35.333Z,25.24
2022-08-25T22:20:21.320Z,24.91
2022-08-25T22:42:08.649Z,24.54
2022-08-25T23:03:54.464Z,24.28
2022-08-25T23:25:43.418Z,23.94
2022-08-25T23:47:29.308Z,23.85
